Time;durP1;ratioP1;P1;durP2;ratioP2;P2;SDS_P1;SDS_P2;PMS_P1;PMS_P2;Temp;Humidity;BMP_temperature;BMP_pressure;BME280_temperature;BME280_humidity;BME280_pressure;Samples;Min_cycle;Max_cycle;Signal;HPM_P1;HPM_P2
2023/07/05 00:02:13;;;;;;;;;6.50;6.50;;;;;18.52;71.50;100665.69;5017474;28;45454;-61
2023/07/05 00:04:38;;;;;;;;;9.50;6.75;;;;;18.58;71.73;100680.66;5016623;28;54639;-60
2023/07/05 00:07:04;;;;;;;;;10.50;10.00;;;;;18.60;71.17;100697.63;5020426;28;45553;-61
2023/07/05 00:09:30;;;;;;;;;10.00;8.75;;;;;18.53;71.20;100690.91;5022185;28;46568;-61
2023/07/05 00:11:56;;;;;;;;;11.00;10.75;;;;;18.52;71.52;100698.13;5006521;28;45385;-61
2023/07/05 00:14:22;;;;;;;;;10.25;9.50;;;;;18.51;71.09;100703.69;5012274;28;45394;-61
2023/07/05 00:16:47;;;;;;;;;8.25;8.25;;;;;18.46;71.09;100711.19;5006282;28;45389;-61
2023/07/05 00:19:13;;;;;;;;;9.75;9.75;;;;;18.41;70.91;100711.53;5011057;28;45413;-61
2023/07/05 00:21:38;;;;;;;;;9.25;7.75;;;;;18.37;70.90;100701.00;5006153;28;45420;-61
2023/07/05 00:24:04;;;;;;;;;13.50;10.25;;;;;18.35;70.93;100722.72;5004345;28;45489;-61
2023/07/05 00:26:29;;;;;;;;;9.25;9.25;;;;;18.30;70.77;100724.84;5006019;28;45329;-61
2023/07/05 00:28:55;;;;;;;;;9.50;8.00;;;;;18.24;70.88;100728.84;5014573;28;45322;-61
2023/07/05 00:31:20;;;;;;;;;10.50;9.00;;;;;18.20;70.91;100723.72;5008443;28;45313;-61
2023/07/05 00:33:45;;;;;;;;;11.50;11.00;;;;;18.18;70.92;100725.66;5013236;28;45293;-61
2023/07/05 00:36:11;;;;;;;;;7.25;7.00;;;;;18.17;71.06;100734.72;5017614;28;45443;-61
2023/07/05 00:38:36;;;;;;;;;9.50;9.50;;;;;18.17;70.73;100730.19;5021843;28;47013;-61
2023/07/05 00:41:02;;;;;;;;;10.25;10.25;;;;;18.17;70.78;100740.13;5016289;28;45328;-60
2023/07/05 00:43:27;;;;;;;;;11.00;8.50;;;;;18.06;70.43;100732.69;5021258;28;45448;-61
2023/07/05 00:45:56;;;;;;;;;11.00;9.75;;;;;18.05;70.13;100747.19;5010263;28;45547;-61
2023/07/05 00:48:28;;;;;;;;;11.00;8.75;;;;;17.91;70.63;100732.72;5013301;28;45995;-61
2023/07/05 00:50:57;;;;;;;;;10.00;9.00;;;;;17.99;70.36;100747.56;5002545;28;45649;-60
2023/07/05 00:53:24;;;;;;;;;11.75;11.00;;;;;18.01;70.79;100740.22;5009580;28;45422;-61
2023/07/05 00:55:55;;;;;;;;;8.50;8.50;;;;;17.95;70.83;100745.06;5021246;28;45600;-61
2023/07/05 00:58:22;;;;;;;;;12.00;10.25;;;;;17.99;70.75;100763.78;5020703;28;45405;-61
2023/07/05 01:00:47;;;;;;;;;12.50;11.50;;;;;18.00;71.14;100765.53;5003477;28;45381;-61
2023/07/05 01:03:19;;;;;;;;;12.00;9.75;;;;;17.94;70.75;100758.66;5012797;28;45300;-61
2023/07/05 01:05:44;;;;;;;;;9.50;9.50;;;;;17.92;70.23;100777.66;5010137;28;45383;-61
2023/07/05 01:08:10;;;;;;;;;14.50;10.50;;;;;17.87;70.58;100777.06;5009766;28;45477;-60
2023/07/05 01:10:36;;;;;;;;;7.50;7.50;;;;;17.81;70.35;100773.84;5001143;28;45373;-60
2023/07/05 01:13:13;;;;;;;;;11.00;9.25;;;;;17.81;70.25;100792.75;5013813;28;45444;-61
2023/07/05 01:15:58;;;;;;;;;9.25;7.25;;;;;17.70;69.74;100796.13;5008534;28;45317;-61
2023/07/05 01:18:41;;;;;;;;;9.00;9.00;;;;;17.74;70.06;100803.06;5007726;28;46116;-61
2023/07/05 01:21:15;;;;;;;;;9.25;8.00;;;;;17.74;69.75;100808.47;5008737;28;45641;-61
2023/07/05 01:24:10;;;;;;;;;7.25;7.25;;;;;17.68;70.07;100798.06;5008502;28;45383;-61
2023/07/05 01:27:03;;;;;;;;;6.25;6.25;;;;;17.73;70.08;100799.50;5002263;28;45444;-60
2023/07/05 01:29:45;;;;;;;;;9.50;8.50;;;;;17.64;69.82;100799.19;5016902;28;45491;-61
2023/07/05 01:32:41;;;;;;;;;8.00;8.00;;;;;17.60;69.85;100793.13;5001061;28;45566;-61
2023/07/05 01:35:42;;;;;;;;;6.75;6.75;;;;;17.63;69.90;100806.44;5001983;28;45391;-60
2023/07/05 01:38:09;;;;;;;;;9.00;7.25;;;;;17.61;69.67;100794.88;4987571;28;45588;-61
2023/07/05 01:40:34;;;;;;;;;5.75;5.75;;;;;17.60;69.86;100801.22;5015494;28;47103;-61
2023/07/05 01:43:12;;;;;;;;;3.33;3.33;;;;;17.56;69.36;100795.13;5016979;28;45325;-61
2023/07/05 01:46:15;;;;;;;;;7.50;6.75;;;;;17.60;69.72;100795.81;5004077;28;45481;-61
2023/07/05 01:49:02;;;;;;;;;6.50;6.50;;;;;17.61;69.47;100797.56;5011151;28;45598;-61
2023/07/05 01:51:46;;;;;;;;;6.00;5.75;;;;;17.60;69.29;100815.56;5001511;28;45431;-61
2023/07/05 01:54:39;;;;;;;;;6.25;6.25;;;;;17.55;69.42;100816.81;5014871;28;45262;-61
2023/07/05 01:57:09;;;;;;;;;6.25;4.50;;;;;17.50;69.41;100825.19;5020457;28;45382;-61
2023/07/05 01:59:41;;;;;;;;;6.00;6.00;;;;;17.48;69.55;100823.56;5004418;28;45553;-61
2023/07/05 02:02:09;;;;;;;;;6.00;6.00;;;;;17.42;69.33;100827.47;5013806;28;46326;-61
2023/07/05 02:04:36;;;;;;;;;9.25;5.50;;;;;17.37;68.70;100825.06;5000616;28;45572;-61
2023/07/05 02:07:06;;;;;;;;;6.25;6.25;;;;;17.38;69.01;100831.34;5014156;28;45457;-61
2023/07/05 02:09:36;;;;;;;;;4.75;4.50;;;;;17.35;69.03;100839.59;5020367;28;45421;-61
2023/07/05 02:12:01;;;;;;;;;5.00;5.00;;;;;17.31;68.95;100833.53;5003442;28;45528;-61
2023/07/05 02:14:27;;;;;;;;;4.75;3.75;;;;;17.37;68.64;100838.56;4999798;28;45644;-61
2023/07/05 02:16:52;;;;;;;;;6.75;5.00;;;;;17.29;68.45;100827.34;4997594;28;45744;-61
2023/07/05 02:19:17;;;;;;;;;5.00;5.00;;;;;17.27;68.76;100823.00;5010432;28;45429;-61
2023/07/05 02:21:43;;;;;;;;;6.25;4.00;;;;;17.28;68.42;100841.78;5006756;28;45428;-61
2023/07/05 02:24:08;;;;;;;;;5.50;3.75;;;;;17.27;67.66;100841.88;5012202;28;45348;-61
2023/07/05 02:26:33;;;;;;;;;5.00;4.00;;;;;17.19;67.76;100839.63;5016399;28;45475;-61
2023/07/05 02:29:00;;;;;;;;;3.00;3.00;;;;;17.22;67.67;100843.03;5009707;28;45674;-61
2023/07/05 02:31:25;;;;;;;;;5.25;4.75;;;;;17.22;67.43;100843.03;5006602;28;46161;-60
2023/07/05 02:33:50;;;;;;;;;5.00;5.00;;;;;17.20;67.00;100847.63;5009999;28;45380;-61
2023/07/05 02:36:16;;;;;;;;;3.25;3.25;;;;;17.18;67.33;100843.28;5016555;28;45494;-61
2023/07/05 02:38:41;;;;;;;;;5.00;4.75;;;;;17.17;67.43;100852.34;5011738;28;45357;-60
2023/07/05 02:41:07;;;;;;;;;2.50;2.50;;;;;17.09;67.46;100854.59;5014481;28;46104;-60
2023/07/05 02:43:33;;;;;;;;;3.00;3.00;;;;;17.07;67.46;100848.44;5011239;28;45457;-61
2023/07/05 02:45:59;;;;;;;;;3.25;3.25;;;;;16.99;67.79;100854.25;5001949;28;45413;-61
2023/07/05 02:48:24;;;;;;;;;3.00;2.00;;;;;16.92;68.00;100847.50;5008107;28;45624;-61
2023/07/05 02:50:49;;;;;;;;;3.00;3.00;;;;;17.02;68.37;100870.28;5006926;28;45484;-60
2023/07/05 02:53:15;;;;;;;;;4.00;3.00;;;;;17.02;67.95;100876.56;5000056;28;45579;-60
2023/07/05 02:55:41;;;;;;;;;4.00;3.00;;;;;17.04;67.94;100881.88;5015113;28;45470;-61
2023/07/05 02:58:06;;;;;;;;;3.25;3.25;;;;;17.02;68.37;100883.75;4999751;28;45467;-60
2023/07/05 03:00:31;;;;;;;;;4.75;4.00;;;;;16.96;68.22;100866.09;5015940;28;45586;-61
2023/07/05 03:02:57;;;;;;;;;4.50;4.00;;;;;16.98;68.09;100872.28;5007911;28;45453;-61
2023/07/05 03:05:23;;;;;;;;;3.00;3.00;;;;;17.03;67.76;100885.50;5004461;28;45548;-60
2023/07/05 03:07:49;;;;;;;;;2.75;2.75;;;;;17.02;67.53;100892.75;5006591;28;45399;-61
2023/07/05 03:10:14;;;;;;;;;4.75;3.00;;;;;16.93;67.71;100876.22;5017192;28;46243;-61
2023/07/05 03:12:40;;;;;;;;;4.00;3.00;;;;;16.98;67.32;100895.69;4999726;28;45289;-60
2023/07/05 03:15:06;;;;;;;;;2.00;2.00;;;;;16.97;67.53;100891.25;5000005;28;45567;-61
2023/07/05 03:17:32;;;;;;;;;2.00;2.00;;;;;17.01;67.49;100900.91;5008457;28;45306;-61
2023/07/05 03:19:59;;;;;;;;;4.75;4.50;;;;;16.96;67.41;100890.38;5006052;28;45448;-61
2023/07/05 03:22:26;;;;;;;;;4.50;3.00;;;;;17.02;67.42;100894.53;5010073;28;45344;-61
2023/07/05 03:24:51;;;;;;;;;4.50;2.00;;;;;17.04;67.04;100906.13;5009782;28;45430;-61
2023/07/05 03:27:17;;;;;;;;;5.00;3.00;;;;;17.01;67.13;100904.47;5009435;28;45544;-61
2023/07/05 03:29:43;;;;;;;;;4.75;3.00;;;;;16.99;67.67;100903.69;5016688;28;45697;-61
2023/07/05 03:32:08;;;;;;;;;2.00;2.00;;;;;16.97;67.33;100911.00;5009188;28;45397;-61
2023/07/05 03:34:33;;;;;;;;;2.50;2.50;;;;;16.94;67.27;100910.28;4999271;28;45337;-61
2023/07/05 03:36:59;;;;;;;;;3.00;2.25;;;;;16.93;67.48;100912.13;5023750;28;45465;-61
2023/07/05 03:39:24;;;;;;;;;4.00;2.75;;;;;16.92;67.08;100926.53;5005261;28;45313;-61
2023/07/05 03:41:49;;;;;;;;;3.25;3.25;;;;;16.92;67.31;100934.63;5018817;28;45340;-61
2023/07/05 03:44:14;;;;;;;;;2.00;2.00;;;;;16.82;67.16;100922.59;5039646;28;47500;-60
2023/07/05 03:46:41;;;;;;;;;5.00;4.00;;;;;16.88;67.08;100925.00;5009122;28;45313;-61
2023/07/05 03:49:07;;;;;;;;;3.75;2.50;;;;;16.81;67.38;100927.13;4999980;28;46186;-61
2023/07/05 03:51:32;;;;;;;;;3.00;3.00;;;;;16.81;67.27;100935.22;5017709;28;45424;-61
2023/07/05 03:53:58;;;;;;;;;3.00;3.00;;;;;16.81;67.29;100939.75;5022586;28;45813;-61
2023/07/05 03:56:24;;;;;;;;;2.75;2.00;;;;;16.78;66.92;100930.00;5026006;28;45467;-61
2023/07/05 03:58:50;;;;;;;;;3.00;3.00;;;;;16.73;66.88;100926.69;5012061;28;45435;-60
2023/07/05 04:01:19;;;;;;;;;2.00;1.75;;;;;16.79;66.70;100947.91;5031749;28;45382;-61
2023/07/05 04:03:46;;;;;;;;;1.50;1.50;;;;;16.78;67.06;100948.84;5016627;28;45345;-61
2023/07/05 04:06:13;;;;;;;;;1.25;1.25;;;;;16.78;67.37;100950.69;5008002;28;45337;-61
2023/07/05 04:08:39;;;;;;;;;2.00;2.00;;;;;16.73;67.52;100950.94;5016274;28;45437;-61
2023/07/05 04:11:05;;;;;;;;;3.00;2.00;;;;;16.76;67.47;100960.69;5009003;28;45455;-60
2023/07/05 04:13:30;;;;;;;;;4.50;3.50;;;;;16.74;67.59;100963.47;5014478;28;45455;-61
2023/07/05 04:15:58;;;;;;;;;3.00;2.25;;;;;16.75;67.69;100962.50;5009095;28;45393;-60
2023/07/05 04:18:23;;;;;;;;;4.75;3.25;;;;;16.74;67.70;100962.59;4998530;28;45366;-61
2023/07/05 04:20:49;;;;;;;;;3.25;3.00;;;;;16.66;67.50;100963.88;5008259;28;45493;-60
2023/07/05 04:23:14;;;;;;;;;2.50;2.50;;;;;16.68;67.62;100967.34;5005366;28;45318;-61
2023/07/05 04:25:39;;;;;;;;;3.25;3.25;;;;;16.71;67.57;100978.94;5036333;28;45309;-61
2023/07/05 04:28:05;;;;;;;;;4.75;4.00;;;;;16.69;67.93;100984.41;5010929;28;50851;-61
2023/07/05 04:30:30;;;;;;;;;5.00;2.50;;;;;16.63;68.21;100982.91;5016456;28;47745;-61
2023/07/05 04:32:55;;;;;;;;;3.75;2.00;;;;;16.66;67.93;100990.84;5005223;28;45510;-60
2023/07/05 04:35:20;;;;;;;;;3.75;3.75;;;;;16.64;68.11;100981.97;5013209;28;45361;-60
2023/07/05 04:37:46;;;;;;;;;5.25;5.25;;;;;16.55;67.99;100982.44;5017127;28;45467;-61
2023/07/05 04:40:11;;;;;;;;;4.75;3.50;;;;;16.63;68.30;100988.28;5006266;28;60072;-60
2023/07/05 04:42:36;;;;;;;;;5.00;4.25;;;;;16.66;68.54;100993.53;5021041;28;45889;-61
2023/07/05 04:45:02;;;;;;;;;6.00;4.00;;;;;16.62;68.47;100980.28;5008292;28;50101;-60
2023/07/05 04:47:27;;;;;;;;;7.00;5.50;;;;;16.60;68.33;100977.69;5050264;28;47188;-61
2023/07/05 04:49:52;;;;;;;;;5.00;4.25;;;;;16.55;68.47;100976.19;5004454;28;45333;-61
2023/07/05 04:52:18;;;;;;;;;3.75;3.75;;;;;16.61;68.81;100992.03;5014622;28;53786;-61
2023/07/05 04:54:43;;;;;;;;;4.25;4.25;;;;;16.57;68.56;100994.03;5009718;28;45527;-61
2023/07/05 04:57:09;;;;;;;;;4.75;3.75;;;;;16.56;68.58;100991.41;5006837;28;50734;-61
2023/07/05 04:59:34;;;;;;;;;5.25;5.00;;;;;16.59;68.53;101000.22;5005446;28;45461;-61
2023/07/05 05:01:59;;;;;;;;;7.00;5.25;;;;;16.52;68.71;100990.69;5016455;28;45590;-61
2023/07/05 05:04:25;;;;;;;;;5.75;4.50;;;;;16.56;68.58;101004.91;5001230;28;51794;-61
2023/07/05 05:06:50;;;;;;;;;3.50;3.50;;;;;16.63;68.57;101012.56;5014443;28;45461;-61
2023/07/05 05:09:16;;;;;;;;;5.75;5.00;;;;;16.58;68.51;101002.97;5020174;28;45316;-61
2023/07/05 05:11:41;;;;;;;;;7.00;4.75;;;;;16.57;68.85;101003.94;5007234;28;45375;-61
2023/07/05 05:14:06;;;;;;;;;7.50;5.75;;;;;16.63;68.81;101012.56;5009185;28;45329;-61
2023/07/05 05:16:32;;;;;;;;;5.25;3.00;;;;;16.62;69.15;101007.25;5006921;28;45548;-61
2023/07/05 05:18:57;;;;;;;;;5.50;4.75;;;;;16.66;68.91;101017.78;5001334;28;45420;-61
2023/07/05 05:21:22;;;;;;;;;6.50;5.00;;;;;16.67;68.78;101016.84;5014469;28;48936;-61
2023/07/05 05:23:48;;;;;;;;;4.75;3.50;;;;;16.72;69.01;101007.63;5003919;28;46433;-60
2023/07/05 05:26:13;;;;;;;;;4.00;4.00;;;;;16.73;69.19;101009.38;5020023;28;46371;-60
2023/07/05 05:28:38;;;;;;;;;7.75;5.25;;;;;16.77;68.99;101008.25;5010503;28;54811;-60
2023/07/05 05:31:08;;;;;;;;;9.00;5.00;;;;;16.77;69.10;101017.22;5006857;28;45470;-61
2023/07/05 05:33:34;;;;;;;;;6.75;5.75;;;;;16.70;69.22;100993.38;5019051;28;45591;-61
2023/07/05 05:35:59;;;;;;;;;6.00;5.50;;;;;16.80;68.74;101008.94;5003019;28;45458;-61
2023/07/05 05:38:24;;;;;;;;;5.25;5.00;;;;;16.78;69.13;101010.00;5002716;28;45361;-61
2023/07/05 05:40:51;;;;;;;;;5.50;4.25;;;;;16.68;69.17;100991.63;5020385;28;45528;-64
2023/07/05 05:43:17;;;;;;;;;6.75;4.25;;;;;16.78;68.94;101020.78;5010536;28;45478;-63
2023/07/05 05:45:44;;;;;;;;;6.00;5.00;;;;;16.71;69.21;101001.38;5019479;28;46267;-64
2023/07/05 05:48:10;;;;;;;;;4.00;4.00;;;;;16.82;69.19;101027.72;5018709;28;45498;-64
2023/07/05 05:50:35;;;;;;;;;4.50;4.50;;;;;16.67;69.07;100997.97;5002098;28;45330;-63
2023/07/05 05:53:01;;;;;;;;;8.00;5.00;;;;;16.80;69.00;101018.88;5013096;28;45246;-63
2023/07/05 05:55:26;;;;;;;;;5.00;5.00;;;;;16.83;69.25;101013.31;5015480;28;47144;-64
2023/07/05 05:57:52;;;;;;;;;5.50;5.50;;;;;16.90;69.62;101030.06;5000735;28;45335;-63
2023/07/05 06:00:17;;;;;;;;;6.00;5.00;;;;;16.68;69.04;100998.84;5013173;28;45547;-63
2023/07/05 06:02:43;;;;;;;;;5.00;5.00;;;;;16.85;69.08;101027.59;5003460;28;45625;-64
2023/07/05 06:05:10;;;;;;;;;6.50;4.00;;;;;16.95;69.20;101047.72;5017260;28;45592;-63
2023/07/05 06:07:35;;;;;;;;;7.00;4.75;;;;;16.84;69.19;101020.47;5008373;28;45646;-64
2023/07/05 06:10:12;;;;;;;;;10.00;6.50;;;;;16.82;69.49;101022.34;5008927;28;45394;-65
2023/07/05 06:12:41;;;;;;;;;4.25;3.50;;;;;16.68;68.91;101013.16;5018844;28;46555;-64
2023/07/05 06:15:08;;;;;;;;;6.50;5.00;;;;;16.73;68.95;101012.94;5017575;28;46405;-64
2023/07/05 06:17:33;;;;;;;;;4.00;4.00;;;;;16.76;69.14;101023.56;5000197;28;45451;-64
2023/07/05 06:19:59;;;;;;;;;7.00;4.25;;;;;16.74;69.19;101020.06;5002699;28;45392;-64
2023/07/05 06:22:25;;;;;;;;;5.00;5.00;;;;;16.90;69.12;101046.25;5017876;28;45728;-64
2023/07/05 06:24:53;;;;;;;;;6.00;5.75;;;;;16.91;69.13;101048.84;5015486;28;47040;-64
2023/07/05 06:57:29;;;;;;;;;4.00;4.00;;;;;17.16;69.06;101083.44;5286219;23;45350;-82
2023/07/05 06:59:54;;;;;;;;;4.75;4.75;;;;;17.16;68.56;101093.38;4997240;28;52289;-81
2023/07/05 07:02:20;;;;;;;;;5.25;4.50;;;;;17.12;69.15;101086.38;4979943;28;46567;-81
2023/07/05 07:04:45;;;;;;;;;5.25;5.25;;;;;17.18;69.25;101107.66;4974312;28;50237;-80
2023/07/05 07:07:11;;;;;;;;;6.25;6.25;;;;;17.08;68.86;101085.69;4972965;28;45738;-80
2023/07/05 07:09:36;;;;;;;;;5.00;4.00;;;;;17.14;69.31;101093.47;4978546;28;46639;-81
2023/07/05 07:12:02;;;;;;;;;5.00;4.75;;;;;17.26;69.29;101094.63;4958993;28;45331;-80
2023/07/05 07:14:28;;;;;;;;;7.00;5.25;;;;;17.27;68.92;101107.13;4980395;28;45529;-80
2023/07/05 07:16:54;;;;;;;;;5.00;4.00;;;;;17.30;69.00;101115.06;4977326;28;45248;-80
2023/07/05 07:19:19;;;;;;;;;4.00;3.00;;;;;17.27;69.03;101106.28;4977441;28;45411;-80
2023/07/05 07:21:45;;;;;;;;;2.75;2.75;;;;;17.26;68.97;101112.59;4976949;28;48289;-79
2023/07/05 07:24:10;;;;;;;;;7.25;5.00;;;;;17.30;68.86;101116.91;4977393;28;45532;-80
2023/07/05 07:26:37;;;;;;;;;5.00;5.00;;;;;17.37;68.58;101123.69;4977505;28;45411;-80
2023/07/05 07:29:02;;;;;;;;;7.00;3.00;;;;;17.36;68.31;101120.13;4984188;28;48301;-80
2023/07/05 07:31:32;;;;;;;;;5.25;4.00;;;;;17.47;68.66;101124.06;4971158;28;45324;-80
2023/07/05 07:34:00;;;;;;;;;6.00;5.00;;;;;17.49;68.60;101125.72;4979418;28;45408;-80
2023/07/05 07:36:31;;;;;;;;;3.75;3.75;;;;;17.52;68.69;101127.38;4977012;28;45493;-79
2023/07/05 07:38:58;;;;;;;;;4.75;4.00;;;;;17.60;68.99;101135.91;4973957;28;46558;-80
2023/07/05 07:41:32;;;;;;;;;6.75;4.00;;;;;17.64;68.40;101142.91;4966693;28;46383;-80
2023/07/05 07:44:00;;;;;;;;;4.00;4.00;;;;;17.68;67.93;101143.59;4974921;28;45398;-80
2023/07/05 07:46:28;;;;;;;;;4.75;4.00;;;;;17.70;68.25;101145.25;4959445;28;45463;-80
2023/07/05 07:48:55;;;;;;;;;8.25;4.75;;;;;17.71;68.41;101152.41;4973050;28;45414;-83
2023/07/05 07:51:26;;;;;;;;;5.75;4.00;;;;;17.75;68.15;101155.78;4975794;28;45590;-82
2023/07/05 07:53:52;;;;;;;;;6.25;4.25;;;;;17.74;67.79;101145.94;4979432;28;45349;-82
2023/07/05 07:56:20;;;;;;;;;7.50;5.25;;;;;17.82;68.25;101153.63;4969131;28;45290;-82
2023/07/05 07:58:48;;;;;;;;;3.25;3.00;;;;;17.82;67.75;101149.06;4973773;28;47453;-82
2023/07/05 08:01:23;;;;;;;;;3.00;3.00;;;;;17.85;68.09;101156.16;4973344;28;45511;-82
2023/07/05 08:03:49;;;;;;;;;4.75;4.75;;;;;17.86;67.68;101147.97;4966611;28;45387;-83
2023/07/05 08:06:15;;;;;;;;;3.25;3.25;;;;;17.81;68.00;101130.25;4980085;28;45643;-82
2023/07/05 08:08:41;;;;;;;;;6.50;3.75;;;;;17.95;68.23;101152.00;4979177;28;45954;-82
2023/07/05 08:11:08;;;;;;;;;3.50;3.50;;;;;17.81;67.40;101119.47;4976862;28;45684;-80
2023/07/05 08:13:34;;;;;;;;;6.50;4.25;;;;;18.02;68.09;101147.97;4974009;28;45455;-81
2023/07/05 08:16:00;;;;;;;;;3.75;3.75;;;;;17.83;68.41;101115.72;4974906;28;45392;-82
2023/07/05 08:18:27;;;;;;;;;7.00;3.25;;;;;18.08;67.71;101142.25;4959027;28;47038;-80
2023/07/05 08:20:53;;;;;;;;;6.50;3.75;;;;;18.14;67.57;101141.00;4977695;28;47008;-79
2023/07/05 08:23:18;;;;;;;;;5.25;3.50;;;;;18.08;67.39;101131.44;4981024;28;45472;-79
2023/07/05 08:25:45;;;;;;;;;2.50;2.50;;;;;18.12;66.97;101126.72;4980902;28;45356;-79
2023/07/05 08:28:13;;;;;;;;;5.00;4.00;;;;;18.19;67.62;101140.75;4987951;28;45375;-80
2023/07/05 08:30:39;;;;;;;;;5.75;3.25;;;;;18.31;66.96;101149.00;4980173;28;45238;-80
2023/07/05 08:33:06;;;;;;;;;4.50;2.75;;;;;18.32;67.11;101139.06;4978313;28;45475;-81
2023/07/05 08:35:32;;;;;;;;;5.00;4.25;;;;;18.31;66.72;101149.00;4978788;28;45958;-80
2023/07/05 08:37:58;;;;;;;;;3.75;3.25;;;;;18.42;66.07;101156.47;4976892;28;46325;-78
2023/07/05 08:40:31;;;;;;;;;6.50;5.00;;;;;18.44;66.18;101157.28;4978966;28;46004;-79
2023/07/05 08:43:13;;;;;;;;;3.50;2.75;;;;;18.47;65.90;101167.88;4976408;28;46084;-80
2023/07/05 08:45:44;;;;;;;;;3.25;3.25;;;;;18.50;66.12;101177.66;4979562;28;45402;-80
2023/07/05 08:48:12;;;;;;;;;4.25;3.25;;;;;18.38;66.00;101149.53;4972444;28;46294;-81
2023/07/05 08:50:43;;;;;;;;;6.25;4.25;;;;;18.51;66.18;101174.88;4973984;28;45704;-82
2023/07/05 08:53:18;;;;;;;;;5.00;3.50;;;;;18.55;65.74;101169.28;4976357;28;45554;-83
2023/07/05 08:55:50;;;;;;;;;4.00;4.00;;;;;18.33;66.35;101136.28;4979662;28;45447;-83
2023/07/05 08:58:21;;;;;;;;;2.50;2.00;;;;;18.61;66.18;101182.44;4963079;28;45444;-82
2023/07/05 09:01:00;;;;;;;;;8.50;3.50;;;;;18.46;65.81;101166.16;4967777;28;45355;-82
2023/07/05 09:03:28;;;;;;;;;6.25;3.75;;;;;18.62;65.69;101187.75;4969847;28;45619;-83
2023/07/05 09:06:12;;;;;;;;;3.50;3.50;;;;;18.61;65.84;101183.31;4978181;28;45452;-83
2023/07/05 09:08:55;;;;;;;;;6.50;3.75;;;;;18.63;65.83;101184.09;4961608;28;46221;-83
2023/07/05 09:11:44;;;;;;;;;5.25;5.25;;;;;18.65;66.04;101179.47;4966901;28;45507;-83
2023/07/05 09:14:41;;;;;;;;;6.25;4.75;;;;;18.48;65.91;101144.47;4978590;28;45461;-83
2023/07/05 09:17:15;;;;;;;;;5.50;4.50;;;;;18.72;66.30;101174.56;4971962;28;45456;-83
2023/07/05 09:19:50;;;;;;;;;4.75;4.25;;;;;18.75;66.15;101174.38;4962966;28;48140;-82
2023/07/05 09:22:22;;;;;;;;;5.25;2.50;;;;;18.57;65.96;101146.59;4956752;28;45594;-82
2023/07/05 09:24:48;;;;;;;;;4.00;4.00;;;;;18.75;65.88;101165.41;4976883;28;45604;-82
2023/07/05 09:27:25;;;;;;;;;4.00;4.00;;;;;18.65;66.05;101147.00;4968253;28;45525;-82
2023/07/05 09:30:06;;;;;;;;;3.75;3.25;;;;;18.71;65.40;101148.50;4975191;28;45426;-83
2023/07/05 09:32:37;;;;;;;;;3.00;2.75;;;;;18.84;65.46;101168.47;4970397;28;45533;-82
2023/07/05 09:35:03;;;;;;;;;4.25;4.25;;;;;18.90;65.54;101183.44;4979384;28;45356;-81
2023/07/05 09:37:32;;;;;;;;;2.25;2.25;;;;;18.77;65.11;101139.13;4979324;28;45570;-82
2023/07/05 09:40:28;;;;;;;;;4.75;3.00;;;;;18.99;64.97;101173.88;4978752;28;47275;-81
2023/07/05 09:43:05;;;;;;;;;5.25;3.25;;;;;18.88;64.64;101156.47;4969725;28;45711;-82
2023/07/05 09:45:31;;;;;;;;;5.75;4.00;;;;;18.86;64.31;101157.53;4975162;28;45242;-84
2023/07/05 09:48:02;;;;;;;;;3.00;3.00;;;;;18.93;63.74;101163.44;4962881;28;45752;-83
2023/07/05 09:50:28;;;;;;;;;3.25;3.00;;;;;19.03;64.68;101165.50;4977043;28;46209;-83
2023/07/05 09:53:01;;;;;;;;;2.50;2.25;;;;;19.02;63.65;101160.19;4977675;28;45409;-83
2023/07/05 09:55:26;;;;;;;;;3.75;3.75;;;;;19.13;63.81;101176.63;4978381;28;45280;-83
2023/07/05 09:57:52;;;;;;;;;4.50;3.50;;;;;19.12;63.74;101171.31;4960450;28;46550;-83
2023/07/05 10:00:34;;;;;;;;;2.00;2.00;;;;;19.23;63.44;101174.22;4976199;28;45582;-82
2023/07/05 10:03:10;;;;;;;;;2.75;2.75;;;;;19.35;63.59;101187.00;4970379;28;45574;-84
2023/07/05 10:05:35;;;;;;;;;3.75;3.00;;;;;19.43;62.99;101189.22;4972076;28;45290;-82
2023/07/05 10:08:04;;;;;;;;;2.00;2.00;;;;;19.30;63.13;101172.88;4975717;28;45399;-83
2023/07/05 10:10:40;;;;;;;;;5.25;3.00;;;;;19.37;63.30;101171.50;4960480;28;47405;-82
2023/07/05 10:13:18;;;;;;;;;3.25;3.25;;;;;19.58;62.69;101204.50;4971620;28;45451;-84
2023/07/05 10:15:49;;;;;;;;;3.00;2.50;;;;;19.39;62.23;101168.72;4971933;28;45440;-83
2023/07/05 10:18:30;;;;;;;;;2.50;2.50;;;;;19.54;62.70;101181.28;4978125;28;45329;-83
2023/07/05 10:21:05;;;;;;;;;3.00;3.00;;;;;19.54;62.07;101181.28;4979676;28;46489;-83
2023/07/05 10:23:34;;;;;;;;;3.00;2.00;;;;;19.58;62.57;101180.13;4972706;28;45454;-83
2023/07/05 10:26:05;;;;;;;;;5.00;5.00;;;;;19.68;61.90;101196.69;4960688;28;45441;-83
2023/07/05 10:28:35;;;;;;;;;4.00;2.00;;;;;19.65;61.42;101187.88;4984647;28;45415;-83
2023/07/05 10:31:04;;;;;;;;;3.00;3.00;;;;;19.83;61.71;101196.69;4961368;28;46435;-83
2023/07/05 10:33:31;;;;;;;;;3.50;3.00;;;;;19.76;61.68;101182.66;4976385;28;45516;-83
2023/07/05 10:36:03;;;;;;;;;3.25;2.75;;;;;19.74;61.32;101176.44;4958306;28;45592;-83
2023/07/05 10:38:32;;;;;;;;;3.00;3.00;;;;;19.95;60.95;101198.63;4977717;28;45343;-83
2023/07/05 10:41:25;;;;;;;;;2.75;2.75;;;;;19.97;61.08;101205.66;4977137;28;45551;-84
2023/07/05 10:44:19;;;;;;;;;3.75;3.25;;;;;20.01;60.91;101200.03;4969988;28;45632;-84
2023/07/05 10:46:46;;;;;;;;;3.00;3.00;;;;;19.96;60.42;101184.09;4977664;28;45754;-84
2023/07/05 10:49:15;;;;;;;;;2.75;2.75;;;;;20.07;60.17;101194.25;4974070;28;45539;-82
2023/07/05 10:51:45;;;;;;;;;4.75;4.75;;;;;19.89;59.89;101161.06;4977749;28;45508;-83
2023/07/05 10:54:17;;;;;;;;;4.00;3.00;;;;;20.11;60.35;101182.22;4973193;28;45300;-82
2023/07/05 10:56:44;;;;;;;;;3.00;3.00;;;;;20.14;60.05;101207.25;4968398;28;45643;-82
2023/07/05 10:59:25;;;;;;;;;3.00;3.00;;;;;20.18;59.68;101205.25;4976428;28;45653;-82
2023/07/05 11:02:11;;;;;;;;;3.25;3.25;;;;;20.21;59.13;101207.75;4961577;28;47284;-83
2023/07/05 11:04:40;;;;;;;;;4.00;3.75;;;;;20.14;58.75;101177.47;4974589;28;45317;-82
2023/07/05 11:07:10;;;;;;;;;2.25;2.25;;;;;20.24;59.91;101193.13;4982938;28;45380;-82
2023/07/05 11:09:37;;;;;;;;;5.50;3.00;;;;;20.22;59.14;101184.22;4977397;28;45428;-83
2023/07/05 11:12:24;;;;;;;;;2.50;2.50;;;;;20.26;59.20;101185.75;4977524;28;45426;-83
2023/07/05 11:14:51;;;;;;;;;3.00;3.00;;;;;20.27;59.58;101177.53;4968698;28;45582;-83
2023/07/05 11:17:23;;;;;;;;;2.00;2.00;;;;;20.38;59.04;101187.66;4976105;28;45383;-83
2023/07/05 11:19:48;;;;;;;;;3.50;3.00;;;;;20.45;58.75;101193.56;4980124;28;45337;-82
2023/07/05 11:22:36;;;;;;;;;3.00;3.00;;;;;20.50;58.42;101194.97;4979228;28;45585;-83
2023/07/05 11:25:01;;;;;;;;;4.00;2.50;;;;;20.52;57.63;101190.31;4966895;28;45281;-84
2023/07/05 11:27:29;;;;;;;;;4.00;4.00;;;;;20.55;57.80;101186.53;4974503;28;45411;-83
2023/07/05 11:29:56;;;;;;;;;3.00;3.00;;;;;20.58;57.62;101180.03;4988328;28;45517;-83
2023/07/05 11:32:26;;;;;;;;;3.00;3.00;;;;;20.59;57.63;101174.50;4976995;28;46349;-83
2023/07/05 11:34:54;;;;;;;;;3.25;3.25;;;;;20.68;57.09;101181.16;4977352;28;45537;-83
2023/07/05 11:37:22;;;;;;;;;3.00;3.00;;;;;20.71;57.07;101187.28;4977101;28;45465;-83
2023/07/05 11:39:51;;;;;;;;;3.75;2.50;;;;;20.74;57.37;101188.91;4960253;28;45483;-83
2023/07/05 11:42:21;;;;;;;;;3.75;2.25;;;;;20.77;56.48;101182.41;4974510;28;46370;-83
2023/07/05 11:44:49;;;;;;;;;4.50;3.00;;;;;20.80;56.91;101185.78;4979424;28;45460;-83
2023/07/05 11:47:23;;;;;;;;;3.50;1.50;;;;;20.85;56.43;101180.03;4973647;28;45338;-83
2023/07/05 11:50:15;;;;;;;;;2.00;2.00;;;;;20.87;56.09;101186.22;4973499;28;45307;-84
2023/07/05 11:52:50;;;;;;;;;2.25;2.25;;;;;20.91;56.44;101183.19;4960749;28;45351;-84
2023/07/05 11:55:25;;;;;;;;;2.25;2.00;;;;;20.90;55.70;101173.31;4977477;28;45621;-84
2023/07/05 11:58:02;;;;;;;;;2.50;2.00;;;;;20.90;55.95;101169.72;4973602;28;45375;-83
2023/07/05 12:00:34;;;;;;;;;1.50;1.50;;;;;20.90;55.77;101164.31;4974014;28;46949;-83
2023/07/05 12:03:05;;;;;;;;;2.50;2.00;;;;;21.04;55.70;101185.03;4973392;28;46611;-84
2023/07/05 12:05:32;;;;;;;;;2.75;2.25;;;;;;;;4971161;28;45381;-84